sensor_id;sensor_type;location;lat;lon;timestamp;temperature;humidity
2945;DHT22;1482;51.398;7.128;2023-09-19T00:02:02;15.90;99.90
2945;DHT22;1482;51.398;7.128;2023-09-19T00:04:32;15.80;99.90
2945;DHT22;1482;51.398;7.128;2023-09-19T00:06:58;15.80;99.90
2945;DHT22;1482;51.398;7.128;2023-09-19T00:09:24;15.70;99.90
2945;DHT22;1482;51.398;7.128;2023-09-19T00:11:53;15.70;99.90
2945;DHT22;1482;51.398;7.128;2023-09-19T00:14:18;15.70;99.90
2945;DHT22;1482;51.398;7.128;2023-09-19T00:16:44;15.70;99.90
2945;DHT22;1482;51.398;7.128;2023-09-19T00:19:12;15.70;99.90
2945;DHT22;1482;51.398;7.128;2023-09-19T00:21:38;15.60;99.90
2945;DHT22;1482;51.398;7.128;2023-09-19T00:24:06;15.60;99.90
2945;DHT22;1482;51.398;7.128;2023-09-19T00:26:32;15.60;99.90
2945;DHT22;1482;51.398;7.128;2023-09-19T00:28:58;15.50;99.90
2945;DHT22;1482;51.398;7.128;2023-09-19T00:31:25;15.50;99.90
2945;DHT22;1482;51.398;7.128;2023-09-19T00:33:50;15.50;99.90
2945;DHT22;1482;51.398;7.128;2023-09-19T00:36:17;15.40;99.90
2945;DHT22;1482;51.398;7.128;2023-09-19T00:38:43;15.40;99.90
2945;DHT22;1482;51.398;7.128;2023-09-19T00:41:11;15.40;99.90
2945;DHT22;1482;51.398;7.128;2023-09-19T00:43:38;15.40;99.90
2945;DHT22;1482;51.398;7.128;2023-09-19T00:46:05;15.40;99.90
2945;DHT22;1482;51.398;7.128;2023-09-19T00:48:31;15.40;99.90
2945;DHT22;1482;51.398;7.128;2023-09-19T00:51:02;15.40;99.90
2945;DHT22;1482;51.398;7.128;2023-09-19T00:53:30;15.40;99.90
2945;DHT22;1482;51.398;7.128;2023-09-19T00:55:56;15.30;99.90
2945;DHT22;1482;51.398;7.128;2023-09-19T00:58:22;15.30;99.90
2945;DHT22;1482;51.398;7.128;2023-09-19T01:00:48;15.30;99.90
2945;DHT22;1482;51.398;7.128;2023-09-19T01:03:14;15.30;99.90
2945;DHT22;1482;51.398;7.128;2023-09-19T01:05:40;15.30;99.90
2945;DHT22;1482;51.398;7.128;2023-09-19T01:08:06;15.30;99.90
2945;DHT22;1482;51.398;7.128;2023-09-19T01:10:33;15.20;99.90
2945;DHT22;1482;51.398;7.128;2023-09-19T01:13:07;15.20;99.90
2945;DHT22;1482;51.398;7.128;2023-09-19T01:31:51;15.10;99.90
2945;DHT22;1482;51.398;7.128;2023-09-19T01:34:19;15.10;99.90
2945;DHT22;1482;51.398;7.128;2023-09-19T01:36:46;15.10;99.90
2945;DHT22;1482;51.398;7.128;2023-09-19T01:39:12;15.10;99.90
2945;DHT22;1482;51.398;7.128;2023-09-19T01:42:12;15.10;99.90
2945;DHT22;1482;51.398;7.128;2023-09-19T01:47:41;15.10;99.90
2945;DHT22;1482;51.398;7.128;2023-09-19T01:50:30;15.00;99.90
2945;DHT22;1482;51.398;7.128;2023-09-19T01:53:02;15.00;99.90
2945;DHT22;1482;51.398;7.128;2023-09-19T01:55:30;15.00;99.90
2945;DHT22;1482;51.398;7.128;2023-09-19T01:58:07;14.90;99.90
2945;DHT22;1482;51.398;7.128;2023-09-19T02:00:36;14.90;99.90
2945;DHT22;1482;51.398;7.128;2023-09-19T02:03:03;14.90;99.90
2945;DHT22;1482;51.398;7.128;2023-09-19T02:05:29;14.90;99.90
2945;DHT22;1482;51.398;7.128;2023-09-19T02:07:55;14.90;99.90
2945;DHT22;1482;51.398;7.128;2023-09-19T02:10:21;14.90;99.90
2945;DHT22;1482;51.398;7.128;2023-09-19T02:12:48;14.90;99.90
2945;DHT22;1482;51.398;7.128;2023-09-19T02:15:14;14.90;99.90
2945;DHT22;1482;51.398;7.128;2023-09-19T02:17:41;14.90;99.90
2945;DHT22;1482;51.398;7.128;2023-09-19T02:20:08;14.90;99.90
2945;DHT22;1482;51.398;7.128;2023-09-19T02:22:35;14.90;99.90
2945;DHT22;1482;51.398;7.128;2023-09-19T02:25:01;14.90;99.90
2945;DHT22;1482;51.398;7.128;2023-09-19T02:27:28;14.90;99.90
2945;DHT22;1482;51.398;7.128;2023-09-19T02:29:53;14.90;99.90
2945;DHT22;1482;51.398;7.128;2023-09-19T02:32:19;14.90;99.90
2945;DHT22;1482;51.398;7.128;2023-09-19T02:34:45;14.90;99.90
2945;DHT22;1482;51.398;7.128;2023-09-19T02:37:10;14.90;99.90
2945;DHT22;1482;51.398;7.128;2023-09-19T02:39:36;14.90;99.90
2945;DHT22;1482;51.398;7.128;2023-09-19T02:42:02;14.90;99.90
2945;DHT22;1482;51.398;7.128;2023-09-19T02:44:29;14.90;99.90
2945;DHT22;1482;51.398;7.128;2023-09-19T02:46:55;14.90;99.90
2945;DHT22;1482;51.398;7.128;2023-09-19T02:49:20;14.90;99.90
2945;DHT22;1482;51.398;7.128;2023-09-19T02:51:46;14.90;99.90
2945;DHT22;1482;51.398;7.128;2023-09-19T02:54:12;14.90;99.90
2945;DHT22;1482;51.398;7.128;2023-09-19T02:56:39;14.80;99.90
2945;DHT22;1482;51.398;7.128;2023-09-19T02:59:04;14.80;99.90
2945;DHT22;1482;51.398;7.128;2023-09-19T03:01:31;14.80;99.90
2945;DHT22;1482;51.398;7.128;2023-09-19T03:03:57;14.80;99.90
2945;DHT22;1482;51.398;7.128;2023-09-19T03:06:23;14.80;99.90
2945;DHT22;1482;51.398;7.128;2023-09-19T03:08:49;14.70;99.90
2945;DHT22;1482;51.398;7.128;2023-09-19T03:11:17;14.70;83.80
2945;DHT22;1482;51.398;7.128;2023-09-19T03:13:53;14.70;74.20
2945;DHT22;1482;51.398;7.128;2023-09-19T03:16:19;14.80;52.50
2945;DHT22;1482;51.398;7.128;2023-09-19T03:18:48;14.70;32.00
2945;DHT22;1482;51.398;7.128;2023-09-19T03:21:15;14.70;25.30
2945;DHT22;1482;51.398;7.128;2023-09-19T03:23:42;14.60;21.20
2945;DHT22;1482;51.398;7.128;2023-09-19T03:26:10;14.60;21.20
2945;DHT22;1482;51.398;7.128;2023-09-19T03:28:35;14.60;19.70
2945;DHT22;1482;51.398;7.128;2023-09-19T03:31:06;14.60;20.30
2945;DHT22;1482;51.398;7.128;2023-09-19T03:33:32;14.60;20.60
2945;DHT22;1482;51.398;7.128;2023-09-19T03:35:59;14.60;21.10
2945;DHT22;1482;51.398;7.128;2023-09-19T03:38:26;14.60;18.60
2945;DHT22;1482;51.398;7.128;2023-09-19T03:40:52;14.60;19.90
2945;DHT22;1482;51.398;7.128;2023-09-19T03:43:18;14.60;15.00
2945;DHT22;1482;51.398;7.128;2023-09-19T03:45:44;14.60;11.50
2945;DHT22;1482;51.398;7.128;2023-09-19T03:48:10;14.60;7.30
2945;DHT22;1482;51.398;7.128;2023-09-19T03:50:36;14.50;8.10
2945;DHT22;1482;51.398;7.128;2023-09-19T03:53:02;14.50;11.90
2945;DHT22;1482;51.398;7.128;2023-09-19T03:55:28;14.50;10.10
2945;DHT22;1482;51.398;7.128;2023-09-19T03:57:53;14.50;7.00
2945;DHT22;1482;51.398;7.128;2023-09-19T04:00:19;14.50;6.40
2945;DHT22;1482;51.398;7.128;2023-09-19T04:02:48;14.50;8.30
2945;DHT22;1482;51.398;7.128;2023-09-19T04:05:13;14.40;12.00
2945;DHT22;1482;51.398;7.128;2023-09-19T04:07:39;14.40;14.80
2945;DHT22;1482;51.398;7.128;2023-09-19T04:10:05;14.40;12.30
2945;DHT22;1482;51.398;7.128;2023-09-19T04:12:34;14.40;15.10
2945;DHT22;1482;51.398;7.128;2023-09-19T04:14:59;14.40;15.50
2945;DHT22;1482;51.398;7.128;2023-09-19T04:17:25;14.40;20.30
2945;DHT22;1482;51.398;7.128;2023-09-19T04:19:50;14.40;20.60
2945;DHT22;1482;51.398;7.128;2023-09-19T04:22:16;14.50;20.50
2945;DHT22;1482;51.398;7.128;2023-09-19T04:24:41;14.50;21.50
2945;DHT22;1482;51.398;7.128;2023-09-19T04:27:07;14.40;23.50
2945;DHT22;1482;51.398;7.128;2023-09-19T04:29:32;14.50;27.30
2945;DHT22;1482;51.398;7.128;2023-09-19T04:31:58;14.40;29.40
2945;DHT22;1482;51.398;7.128;2023-09-19T04:34:24;14.40;28.20
2945;DHT22;1482;51.398;7.128;2023-09-19T04:36:50;14.40;27.90
2945;DHT22;1482;51.398;7.128;2023-09-19T04:39:15;14.40;36.60
2945;DHT22;1482;51.398;7.128;2023-09-19T04:41:42;14.40;36.70
2945;DHT22;1482;51.398;7.128;2023-09-19T04:44:07;14.40;38.40
2945;DHT22;1482;51.398;7.128;2023-09-19T04:46:36;14.40;36.40
2945;DHT22;1482;51.398;7.128;2023-09-19T04:49:01;14.40;39.30
2945;DHT22;1482;51.398;7.128;2023-09-19T04:51:28;14.40;42.30
2945;DHT22;1482;51.398;7.128;2023-09-19T04:53:58;14.40;56.80
2945;DHT22;1482;51.398;7.128;2023-09-19T04:56:23;14.30;59.40
2945;DHT22;1482;51.398;7.128;2023-09-19T04:58:49;14.30;70.50
2945;DHT22;1482;51.398;7.128;2023-09-19T05:01:15;14.30;71.00
2945;DHT22;1482;51.398;7.128;2023-09-19T05:03:40;14.30;89.40
2945;DHT22;1482;51.398;7.128;2023-09-19T05:06:06;14.30;90.60
2945;DHT22;1482;51.398;7.128;2023-09-19T05:08:31;14.30;90.00
2945;DHT22;1482;51.398;7.128;2023-09-19T05:10:57;14.30;81.90
2945;DHT22;1482;51.398;7.128;2023-09-19T05:13:23;14.30;83.00
2945;DHT22;1482;51.398;7.128;2023-09-19T05:15:49;14.30;81.70
2945;DHT22;1482;51.398;7.128;2023-09-19T05:18:15;14.30;80.50
2945;DHT22;1482;51.398;7.128;2023-09-19T05:20:41;14.40;66.50
2945;DHT22;1482;51.398;7.128;2023-09-19T05:23:07;14.30;70.00
2945;DHT22;1482;51.398;7.128;2023-09-19T05:25:39;14.30;67.90
2945;DHT22;1482;51.398;7.128;2023-09-19T05:28:09;14.30;72.60
2945;DHT22;1482;51.398;7.128;2023-09-19T05:30:37;14.30;72.70
2945;DHT22;1482;51.398;7.128;2023-09-19T05:33:04;14.30;68.10
2945;DHT22;1482;51.398;7.128;2023-09-19T05:35:30;14.30;66.70
2945;DHT22;1482;51.398;7.128;2023-09-19T05:37:56;14.40;60.50
2945;DHT22;1482;51.398;7.128;2023-09-19T05:40:24;14.40;64.30
2945;DHT22;1482;51.398;7.128;2023-09-19T05:42:50;14.40;67.00
2945;DHT22;1482;51.398;7.128;2023-09-19T05:45:18;14.40;62.30
2945;DHT22;1482;51.398;7.128;2023-09-19T05:47:48;14.40;61.20
2945;DHT22;1482;51.398;7.128;2023-09-19T05:50:14;14.40;61.90
2945;DHT22;1482;51.398;7.128;2023-09-19T05:52:42;14.50;59.00
2945;DHT22;1482;51.398;7.128;2023-09-19T05:55:08;14.50;45.10
2945;DHT22;1482;51.398;7.128;2023-09-19T05:57:34;14.60;39.60
2945;DHT22;1482;51.398;7.128;2023-09-19T06:00:00;14.70;34.50
2945;DHT22;1482;51.398;7.128;2023-09-19T06:02:26;14.80;25.50
2945;DHT22;1482;51.398;7.128;2023-09-19T06:04:55;14.80;22.70
2945;DHT22;1482;51.398;7.128;2023-09-19T06:07:22;14.90;19.30
2945;DHT22;1482;51.398;7.128;2023-09-19T06:09:51;14.90;9.90
2945;DHT22;1482;51.398;7.128;2023-09-19T06:12:17;14.90;9.10
2945;DHT22;1482;51.398;7.128;2023-09-19T06:14:43;15.00;7.50
2945;DHT22;1482;51.398;7.128;2023-09-19T06:17:09;15.00;5.30
2945;DHT22;1482;51.398;7.128;2023-09-19T06:19:34;15.00;6.20
2945;DHT22;1482;51.398;7.128;2023-09-19T06:22:00;15.00;6.00
2945;DHT22;1482;51.398;7.128;2023-09-19T06:24:25;15.00;3.00
2945;DHT22;1482;51.398;7.128;2023-09-19T06:26:51;15.10;1.00
2945;DHT22;1482;51.398;7.128;2023-09-19T06:29:18;15.20;1.10
2945;DHT22;1482;51.398;7.128;2023-09-19T06:31:43;15.20;1.00
2945;DHT22;1482;51.398;7.128;2023-09-19T06:34:10;15.20;1.00
2945;DHT22;1482;51.398;7.128;2023-09-19T06:36:35;15.30;1.00
2945;DHT22;1482;51.398;7.128;2023-09-19T06:39:01;15.30;1.00
2945;DHT22;1482;51.398;7.128;2023-09-19T06:41:29;15.40;1.00
2945;DHT22;1482;51.398;7.128;2023-09-19T06:43:55;15.40;1.00
2945;DHT22;1482;51.398;7.128;2023-09-19T06:46:20;15.30;1.00
2945;DHT22;1482;51.398;7.128;2023-09-19T06:48:46;15.30;1.00
2945;DHT22;1482;51.398;7.128;2023-09-19T06:51:13;15.30;1.00
2945;DHT22;1482;51.398;7.128;2023-09-19T06:53:41;15.40;1.00
2945;DHT22;1482;51.398;7.128;2023-09-19T06:56:07;15.50;1.00
2945;DHT22;1482;51.398;7.128;2023-09-19T06:58:32;15.60;1.00
2945;DHT22;1482;51.398;7.128;2023-09-19T07:00:58;15.70;1.00
2945;DHT22;1482;51.398;7.128;2023-09-19T07:03:23;15.80;1.00
2945;DHT22;1482;51.398;7.128;2023-09-19T07:05:51;15.80;1.00
2945;DHT22;1482;51.398;7.128;2023-09-19T07:08:18;15.90;1.00
2945;DHT22;1482;51.398;7.128;2023-09-19T07:10:45;16.00;1.00
2945;DHT22;1482;51.398;7.128;2023-09-19T07:13:19;16.20;1.00
2945;DHT22;1482;51.398;7.128;2023-09-19T07:15:45;16.30;1.00
2945;DHT22;1482;51.398;7.128;2023-09-19T07:18:16;16.50;1.00
2945;DHT22;1482;51.398;7.128;2023-09-19T07:20:43;16.70;1.00
2945;DHT22;1482;51.398;7.128;2023-09-19T07:23:18;16.90;1.00
2945;DHT22;1482;51.398;7.128;2023-09-19T07:25:46;17.00;1.00
2945;DHT22;1482;51.398;7.128;2023-09-19T07:28:11;17.40;1.00
2945;DHT22;1482;51.398;7.128;2023-09-19T07:30:37;17.60;1.00
2945;DHT22;1482;51.398;7.128;2023-09-19T07:33:04;17.80;1.00
2945;DHT22;1482;51.398;7.128;2023-09-19T07:35:30;17.90;1.00
2945;DHT22;1482;51.398;7.128;2023-09-19T07:37:56;18.00;1.00
2945;DHT22;1482;51.398;7.128;2023-09-19T07:40:24;18.30;1.00
2945;DHT22;1482;51.398;7.128;2023-09-19T07:42:52;18.30;1.00
2945;DHT22;1482;51.398;7.128;2023-09-19T07:45:17;18.30;1.00
2945;DHT22;1482;51.398;7.128;2023-09-19T07:47:50;18.30;1.00
2945;DHT22;1482;51.398;7.128;2023-09-19T07:50:17;18.40;1.00
2945;DHT22;1482;51.398;7.128;2023-09-19T07:52:44;18.50;1.00
2945;DHT22;1482;51.398;7.128;2023-09-19T07:55:10;18.40;1.00
2945;DHT22;1482;51.398;7.128;2023-09-19T07:57:37;18.50;1.00
2945;DHT22;1482;51.398;7.128;2023-09-19T08:00:03;18.60;1.00
2945;DHT22;1482;51.398;7.128;2023-09-19T08:02:34;18.60;1.00
2945;DHT22;1482;51.398;7.128;2023-09-19T08:04:59;18.60;1.00
2945;DHT22;1482;51.398;7.128;2023-09-19T08:07:26;18.90;1.00
2945;DHT22;1482;51.398;7.128;2023-09-19T08:09:54;18.90;1.00
2945;DHT22;1482;51.398;7.128;2023-09-19T08:12:19;18.90;1.00
2945;DHT22;1482;51.398;7.128;2023-09-19T08:14:49;18.80;1.00
2945;DHT22;1482;51.398;7.128;2023-09-19T08:17:15;18.80;1.00
2945;DHT22;1482;51.398;7.128;2023-09-19T08:19:41;18.70;1.00
2945;DHT22;1482;51.398;7.128;2023-09-19T08:22:07;18.70;1.00
2945;DHT22;1482;51.398;7.128;2023-09-19T08:24:36;18.50;1.00
2945;DHT22;1482;51.398;7.128;2023-09-19T08:27:03;18.70;1.00
2945;DHT22;1482;51.398;7.128;2023-09-19T08:29:30;19.00;1.00
2945;DHT22;1482;51.398;7.128;2023-09-19T08:31:57;19.10;1.00
2945;DHT22;1482;51.398;7.128;2023-09-19T08:34:26;19.20;1.00
2945;DHT22;1482;51.398;7.128;2023-09-19T08:36:54;19.60;1.00
2945;DHT22;1482;51.398;7.128;2023-09-19T08:39:26;20.10;1.00
2945;DHT22;1482;51.398;7.128;2023-09-19T08:41:59;20.60;1.00
2945;DHT22;1482;51.398;7.128;2023-09-19T08:44:25;21.00;1.00
2945;DHT22;1482;51.398;7.128;2023-09-19T08:46:55;21.40;1.00
2945;DHT22;1482;51.398;7.128;2023-09-19T08:49:39;21.90;1.00
2945;DHT22;1482;51.398;7.128;2023-09-19T08:52:20;22.30;1.00
2945;DHT22;1482;51.398;7.128;2023-09-19T08:54:49;22.10;1.00
2945;DHT22;1482;51.398;7.128;2023-09-19T08:57:17;22.10;1.00
2945;DHT22;1482;51.398;7.128;2023-09-19T08:59:48;22.40;1.00
2945;DHT22;1482;51.398;7.128;2023-09-19T09:02:15;22.80;1.00
2945;DHT22;1482;51.398;7.128;2023-09-19T09:04:43;23.00;1.00
2945;DHT22;1482;51.398;7.128;2023-09-19T09:07:11;23.00;1.00
2945;DHT22;1482;51.398;7.128;2023-09-19T09:09:38;23.00;1.00
2945;DHT22;1482;51.398;7.128;2023-09-19T09:12:09;23.00;1.00
2945;DHT22;1482;51.398;7.128;2023-09-19T09:14:35;23.00;1.00
2945;DHT22;1482;51.398;7.128;2023-09-19T09:17:01;22.60;1.00
2945;DHT22;1482;51.398;7.128;2023-09-19T09:19:28;22.40;1.00
2945;DHT22;1482;51.398;7.128;2023-09-19T09:22:09;22.30;1.00
2945;DHT22;1482;51.398;7.128;2023-09-19T09:24:35;22.40;1.00
2945;DHT22;1482;51.398;7.128;2023-09-19T09:27:04;22.30;1.00
2945;DHT22;1482;51.398;7.128;2023-09-19T09:29:47;22.10;1.00
2945;DHT22;1482;51.398;7.128;2023-09-19T09:32:19;22.40;1.00
2945;DHT22;1482;51.398;7.128;2023-09-19T09:34:49;22.40;1.00
2945;DHT22;1482;51.398;7.128;2023-09-19T09:37:16;22.40;1.00
2945;DHT22;1482;51.398;7.128;2023-09-19T09:39:50;22.30;1.00
2945;DHT22;1482;51.398;7.128;2023-09-19T09:42:35;22.40;1.00
2945;DHT22;1482;51.398;7.128;2023-09-19T09:45:20;22.30;1.00
2945;DHT22;1482;51.398;7.128;2023-09-19T09:47:58;22.30;1.00
2945;DHT22;1482;51.398;7.128;2023-09-19T09:52:56;22.30;1.00
2945;DHT22;1482;51.398;7.128;2023-09-19T09:56:04;22.10;1.00
2945;DHT22;1482;51.398;7.128;2023-09-19T09:58:34;22.20;1.00
2945;DHT22;1482;51.398;7.128;2023-09-19T10:01:01;22.20;1.00
2945;DHT22;1482;51.398;7.128;2023-09-19T10:03:38;22.00;1.00
2945;DHT22;1482;51.398;7.128;2023-09-19T10:06:11;22.00;1.00
2945;DHT22;1482;51.398;7.128;2023-09-19T10:11:44;22.00;1.00
2945;DHT22;1482;51.398;7.128;2023-09-19T10:14:12;22.30;1.00
2945;DHT22;1482;51.398;7.128;2023-09-19T10:16:48;22.10;1.00
2945;DHT22;1482;51.398;7.128;2023-09-19T10:19:45;21.90;1.00
2945;DHT22;1482;51.398;7.128;2023-09-19T10:22:12;21.80;1.00
2945;DHT22;1482;51.398;7.128;2023-09-19T10:24:46;21.70;1.00
2945;DHT22;1482;51.398;7.128;2023-09-19T10:27:12;21.90;1.00
2945;DHT22;1482;51.398;7.128;2023-09-19T10:29:40;21.90;1.00
2945;DHT22;1482;51.398;7.128;2023-09-19T10:32:07;22.00;1.00
2945;DHT22;1482;51.398;7.128;2023-09-19T10:34:35;22.00;1.00
2945;DHT22;1482;51.398;7.128;2023-09-19T10:37:02;22.20;1.00
2945;DHT22;1482;51.398;7.128;2023-09-19T10:39:32;22.30;1.00
2945;DHT22;1482;51.398;7.128;2023-09-19T10:42:02;22.60;1.00
2945;DHT22;1482;51.398;7.128;2023-09-19T10:44:32;22.70;1.00
2945;DHT22;1482;51.398;7.128;2023-09-19T10:46:58;22.50;1.00
2945;DHT22;1482;51.398;7.128;2023-09-19T10:49:24;22.20;1.00
2945;DHT22;1482;51.398;7.128;2023-09-19T10:51:54;22.10;1.00
2945;DHT22;1482;51.398;7.128;2023-09-19T10:54:25;22.20;1.00
2945;DHT22;1482;51.398;7.128;2023-09-19T10:56:53;21.80;1.00
2945;DHT22;1482;51.398;7.128;2023-09-19T10:59:21;21.60;1.00
2945;DHT22;1482;51.398;7.128;2023-09-19T11:01:50;21.50;1.00
2945;DHT22;1482;51.398;7.128;2023-09-19T11:04:35;21.70;1.00
2945;DHT22;1482;51.398;7.128;2023-09-19T11:09:52;22.10;1.00
2945;DHT22;1482;51.398;7.128;2023-09-19T11:14:54;21.50;1.00
2945;DHT22;1482;51.398;7.128;2023-09-19T11:30:36;21.60;1.00
2945;DHT22;1482;51.398;7.128;2023-09-19T11:33:28;21.60;1.00
2945;DHT22;1482;51.398;7.128;2023-09-19T11:46:52;22.10;1.00
2945;DHT22;1482;51.398;7.128;2023-09-19T11:49:19;22.10;1.00
2945;DHT22;1482;51.398;7.128;2023-09-19T11:51:51;22.10;1.00
2945;DHT22;1482;51.398;7.128;2023-09-19T11:54:17;22.00;1.00
2945;DHT22;1482;51.398;7.128;2023-09-19T11:56:54;21.70;1.00
2945;DHT22;1482;51.398;7.128;2023-09-19T11:59:21;21.70;1.00
2945;DHT22;1482;51.398;7.128;2023-09-19T12:01:52;21.70;1.00
2945;DHT22;1482;51.398;7.128;2023-09-19T12:04:37;21.80;1.00
2945;DHT22;1482;51.398;7.128;2023-09-19T12:07:10;21.90;1.00
2945;DHT22;1482;51.398;7.128;2023-09-19T12:09:43;22.10;1.00
2945;DHT22;1482;51.398;7.128;2023-09-19T12:12:19;22.10;1.00
2945;DHT22;1482;51.398;7.128;2023-09-19T12:14:52;22.20;1.00
2945;DHT22;1482;51.398;7.128;2023-09-19T12:17:18;22.20;1.00
2945;DHT22;1482;51.398;7.128;2023-09-19T12:19:55;22.30;1.00
2945;DHT22;1482;51.398;7.128;2023-09-19T12:22:20;22.40;1.00
2945;DHT22;1482;51.398;7.128;2023-09-19T12:24:46;22.30;1.00
2945;DHT22;1482;51.398;7.128;2023-09-19T12:27:13;22.30;1.00
2945;DHT22;1482;51.398;7.128;2023-09-19T12:29:44;22.30;1.00
2945;DHT22;1482;51.398;7.128;2023-09-19T12:32:10;22.30;1.00
2945;DHT22;1482;51.398;7.128;2023-09-19T12:34:36;22.40;1.00
2945;DHT22;1482;51.398;7.128;2023-09-19T12:37:12;22.40;1.00
2945;DHT22;1482;51.398;7.128;2023-09-19T12:39:44;22.20;1.00
2945;DHT22;1482;51.398;7.128;2023-09-19T12:42:15;22.00;1.00
2945;DHT22;1482;51.398;7.128;2023-09-19T12:44:42;21.90;1.00
2945;DHT22;1482;51.398;7.128;2023-09-19T12:47:13;21.90;1.00
2945;DHT22;1482;51.398;7.128;2023-09-19T12:50:06;22.00;1.00
2945;DHT22;1482;51.398;7.128;2023-09-19T12:52:37;22.00;1.00
2945;DHT22;1482;51.398;7.128;2023-09-19T12:55:02;22.10;1.00
2945;DHT22;1482;51.398;7.128;2023-09-19T12:57:28;21.90;1.00
2945;DHT22;1482;51.398;7.128;2023-09-19T12:59:57;21.90;1.00
2945;DHT22;1482;51.398;7.128;2023-09-19T13:02:23;22.00;1.00
2945;DHT22;1482;51.398;7.128;2023-09-19T13:04:54;22.00;1.00
2945;DHT22;1482;51.398;7.128;2023-09-19T13:07:43;21.90;1.00
2945;DHT22;1482;51.398;7.128;2023-09-19T13:10:11;21.80;1.00
2945;DHT22;1482;51.398;7.128;2023-09-19T13:12:40;21.70;1.00
2945;DHT22;1482;51.398;7.128;2023-09-19T13:15:11;21.50;1.00
2945;DHT22;1482;51.398;7.128;2023-09-19T13:17:43;21.50;1.00
2945;DHT22;1482;51.398;7.128;2023-09-19T13:20:21;21.60;1.00
2945;DHT22;1482;51.398;7.128;2023-09-19T13:22:50;21.70;1.00
2945;DHT22;1482;51.398;7.128;2023-09-19T13:25:20;21.80;1.00
2945;DHT22;1482;51.398;7.128;2023-09-19T13:27:56;21.80;1.00
2945;DHT22;1482;51.398;7.128;2023-09-19T13:30:23;21.70;1.00
2945;DHT22;1482;51.398;7.128;2023-09-19T13:33:08;21.80;1.00
2945;DHT22;1482;51.398;7.128;2023-09-19T13:35:35;21.70;1.00
2945;DHT22;1482;51.398;7.128;2023-09-19T13:38:02;21.60;1.00
2945;DHT22;1482;51.398;7.128;2023-09-19T13:40:28;21.30;1.00
2945;DHT22;1482;51.398;7.128;2023-09-19T13:42:56;21.20;1.00
2945;DHT22;1482;51.398;7.128;2023-09-19T13:45:22;21.30;1.00
2945;DHT22;1482;51.398;7.128;2023-09-19T13:47:50;21.30;1.00
2945;DHT22;1482;51.398;7.128;2023-09-19T13:50:16;21.30;1.00
2945;DHT22;1482;51.398;7.128;2023-09-19T13:52:42;21.40;1.00
2945;DHT22;1482;51.398;7.128;2023-09-19T13:55:08;21.20;1.00
2945;DHT22;1482;51.398;7.128;2023-09-19T13:57:33;21.20;1.00
2945;DHT22;1482;51.398;7.128;2023-09-19T13:59:59;21.20;1.00
2945;DHT22;1482;51.398;7.128;2023-09-19T14:02:24;21.10;1.00
2945;DHT22;1482;51.398;7.128;2023-09-19T14:04:53;21.10;1.00
2945;DHT22;1482;51.398;7.128;2023-09-19T14:07:20;21.00;1.00
2945;DHT22;1482;51.398;7.128;2023-09-19T14:09:46;21.10;1.00
2945;DHT22;1482;51.398;7.128;2023-09-19T14:12:13;21.20;1.00
2945;DHT22;1482;51.398;7.128;2023-09-19T14:14:38;21.20;1.00
2945;DHT22;1482;51.398;7.128;2023-09-19T14:17:04;21.20;1.00
2945;DHT22;1482;51.398;7.128;2023-09-19T14:19:30;21.10;1.00
2945;DHT22;1482;51.398;7.128;2023-09-19T14:21:56;21.10;1.00
2945;DHT22;1482;51.398;7.128;2023-09-19T14:24:22;21.00;1.00
2945;DHT22;1482;51.398;7.128;2023-09-19T14:26:48;21.00;1.00
2945;DHT22;1482;51.398;7.128;2023-09-19T14:29:15;21.00;1.00
2945;DHT22;1482;51.398;7.128;2023-09-19T14:31:41;21.00;1.00
2945;DHT22;1482;51.398;7.128;2023-09-19T14:34:08;21.00;1.00
2945;DHT22;1482;51.398;7.128;2023-09-19T14:36:36;21.00;1.00
2945;DHT22;1482;51.398;7.128;2023-09-19T14:39:02;21.00;1.00
2945;DHT22;1482;51.398;7.128;2023-09-19T14:41:28;20.90;1.00
2945;DHT22;1482;51.398;7.128;2023-09-19T14:43:56;20.90;1.00
2945;DHT22;1482;51.398;7.128;2023-09-19T14:46:22;20.80;1.00
2945;DHT22;1482;51.398;7.128;2023-09-19T14:48:52;20.70;1.00
2945;DHT22;1482;51.398;7.128;2023-09-19T14:51:18;20.80;1.00
2945;DHT22;1482;51.398;7.128;2023-09-19T14:53:45;20.90;1.00
2945;DHT22;1482;51.398;7.128;2023-09-19T14:56:12;20.70;1.00
2945;DHT22;1482;51.398;7.128;2023-09-19T14:58:38;20.70;1.00
2945;DHT22;1482;51.398;7.128;2023-09-19T15:01:09;20.60;1.00
2945;DHT22;1482;51.398;7.128;2023-09-19T15:03:39;20.60;1.00
2945;DHT22;1482;51.398;7.128;2023-09-19T15:06:09;20.60;1.00
2945;DHT22;1482;51.398;7.128;2023-09-19T15:08:36;20.50;1.00
2945;DHT22;1482;51.398;7.128;2023-09-19T15:11:04;20.40;1.00
2945;DHT22;1482;51.398;7.128;2023-09-19T15:13:31;20.50;1.00
2945;DHT22;1482;51.398;7.128;2023-09-19T15:16:07;20.30;1.00
2945;DHT22;1482;51.398;7.128;2023-09-19T15:18:37;20.30;1.00
2945;DHT22;1482;51.398;7.128;2023-09-19T15:21:07;20.30;1.00
2945;DHT22;1482;51.398;7.128;2023-09-19T15:23:33;20.20;1.00
2945;DHT22;1482;51.398;7.128;2023-09-19T15:26:06;20.10;1.00
2945;DHT22;1482;51.398;7.128;2023-09-19T15:28:32;20.00;1.00
2945;DHT22;1482;51.398;7.128;2023-09-19T15:33:29;19.90;1.00
2945;DHT22;1482;51.398;7.128;2023-09-19T15:36:12;20.00;1.00
2945;DHT22;1482;51.398;7.128;2023-09-19T15:41:16;19.90;1.00
2945;DHT22;1482;51.398;7.128;2023-09-19T15:43:41;19.90;1.00
2945;DHT22;1482;51.398;7.128;2023-09-19T15:46:07;19.80;1.00
2945;DHT22;1482;51.398;7.128;2023-09-19T15:48:32;19.80;1.00
2945;DHT22;1482;51.398;7.128;2023-09-19T15:51:03;19.80;1.00
2945;DHT22;1482;51.398;7.128;2023-09-19T15:53:52;19.80;1.00
2945;DHT22;1482;51.398;7.128;2023-09-19T15:56:19;19.90;1.00
2945;DHT22;1482;51.398;7.128;2023-09-19T15:58:53;20.00;1.00
2945;DHT22;1482;51.398;7.128;2023-09-19T16:01:19;20.00;1.00
2945;DHT22;1482;51.398;7.128;2023-09-19T16:03:50;20.00;1.00
2945;DHT22;1482;51.398;7.128;2023-09-19T16:06:20;19.90;1.00
2945;DHT22;1482;51.398;7.128;2023-09-19T16:08:47;20.00;1.00
2945;DHT22;1482;51.398;7.128;2023-09-19T16:11:13;20.00;1.00
2945;DHT22;1482;51.398;7.128;2023-09-19T16:13:40;19.90;1.00
2945;DHT22;1482;51.398;7.128;2023-09-19T16:16:11;19.90;1.00
2945;DHT22;1482;51.398;7.128;2023-09-19T16:18:44;19.80;1.00
2945;DHT22;1482;51.398;7.128;2023-09-19T16:21:10;19.70;1.00
2945;DHT22;1482;51.398;7.128;2023-09-19T16:23:36;19.60;1.00
2945;DHT22;1482;51.398;7.128;2023-09-19T16:26:07;19.50;1.00
2945;DHT22;1482;51.398;7.128;2023-09-19T16:28:39;19.40;1.00
2945;DHT22;1482;51.398;7.128;2023-09-19T16:31:06;19.40;1.00
2945;DHT22;1482;51.398;7.128;2023-09-19T16:33:33;19.30;1.00
2945;DHT22;1482;51.398;7.128;2023-09-19T16:36:02;19.30;1.00
2945;DHT22;1482;51.398;7.128;2023-09-19T16:38:28;19.20;1.00
2945;DHT22;1482;51.398;7.128;2023-09-19T16:40:58;19.20;1.00
2945;DHT22;1482;51.398;7.128;2023-09-19T16:43:28;19.10;1.00
2945;DHT22;1482;51.398;7.128;2023-09-19T16:46:12;19.10;1.00
2945;DHT22;1482;51.398;7.128;2023-09-19T16:48:42;19.10;1.00
2945;DHT22;1482;51.398;7.128;2023-09-19T16:51:10;19.10;1.00
2945;DHT22;1482;51.398;7.128;2023-09-19T16:53:37;19.00;1.00
2945;DHT22;1482;51.398;7.128;2023-09-19T16:56:11;19.00;1.00
2945;DHT22;1482;51.398;7.128;2023-09-19T16:58:41;19.00;1.00
2945;DHT22;1482;51.398;7.128;2023-09-19T17:01:12;19.00;1.00
2945;DHT22;1482;51.398;7.128;2023-09-19T17:03:42;19.00;1.00
2945;DHT22;1482;51.398;7.128;2023-09-19T17:06:08;19.00;1.00
2945;DHT22;1482;51.398;7.128;2023-09-19T17:08:36;18.90;1.00
2945;DHT22;1482;51.398;7.128;2023-09-19T17:11:07;18.90;1.00
2945;DHT22;1482;51.398;7.128;2023-09-19T17:13:37;18.90;1.00
2945;DHT22;1482;51.398;7.128;2023-09-19T17:16:04;18.90;1.00
2945;DHT22;1482;51.398;7.128;2023-09-19T17:18:30;18.90;1.00
2945;DHT22;1482;51.398;7.128;2023-09-19T17:20:59;18.90;1.00